createdAt,value
2022-12-24T00:01:07.319Z,8.4
2022-12-24T00:06:26.887Z,9.6
2022-12-24T00:11:55.128Z,9.6
2022-12-24T00:17:34.519Z,7.2
2022-12-24T00:23:13.429Z,7.2
2022-12-24T00:28:39.914Z,8.4
2022-12-24T00:34:25.161Z,8.4
2022-12-24T00:40:07.945Z,5.9
2022-12-24T00:45:30.115Z,5.9
2022-12-24T00:51:06.997Z,5.9
2022-12-24T00:56:27.201Z,8.4
2022-12-24T01:02:03.254Z,9.6
2022-12-24T01:07:47.025Z,7.2
2022-12-24T01:12:58.922Z,8.4
2022-12-24T01:18:50.552Z,5.9
2022-12-24T01:24:14.098Z,5.9
2022-12-24T01:29:48.172Z,7.2
2022-12-24T01:35:29.813Z,4.8
2022-12-24T01:40:54.149Z,5.9
2022-12-24T01:46:28.049Z,5.9
2022-12-24T01:52:03.068Z,8.4
2022-12-24T01:57:48.233Z,7.2
2022-12-24T02:03:08.109Z,9.6
2022-12-24T02:08:57.437Z,9.6
2022-12-24T02:14:07.565Z,8.4
2022-12-24T02:19:43.615Z,9.6
2022-12-24T02:25:12.480Z,9.6
2022-12-24T02:31:06.292Z,8.4
2022-12-24T02:36:45.037Z,7.2
2022-12-24T02:42:10.513Z,9.6
2022-12-24T02:47:34.014Z,11.9
2022-12-24T02:53:15.500Z,9.6
2022-12-24T02:58:32.957Z,9.6
2022-12-24T03:04:19.009Z,9.6
2022-12-24T03:09:36.067Z,9.6
2022-12-24T03:15:23.137Z,7.2
2022-12-24T03:20:50.979Z,5.9
2022-12-24T03:26:24.311Z,5.9
2022-12-24T03:31:53.232Z,3.6
2022-12-24T03:37:39.412Z,3.6
2022-12-24T03:42:55.243Z,4.8
2022-12-24T03:48:43.570Z,4.8
2022-12-24T03:54:16.301Z,4.8
2022-12-24T03:59:36.954Z,7.2
2022-12-24T04:05:21.493Z,5.9
2022-12-24T04:11:04.811Z,5.9
2022-12-24T04:16:31.907Z,7.2
2022-12-24T04:22:03.440Z,8.4
2022-12-24T04:27:30.683Z,8.4
2022-12-24T04:32:55.408Z,5.9
2022-12-24T04:38:36.312Z,4.8
2022-12-24T04:44:24.225Z,5.9
2022-12-24T04:49:59.069Z,7.2
2022-12-24T04:55:17.195Z,5.9
2022-12-24T05:00:52.052Z,5.9
2022-12-24T05:06:25.556Z,4.8
2022-12-24T05:12:09.545Z,4.8
2022-12-24T05:17:36.135Z,3.6
2022-12-24T05:23:02.956Z,3.6
2022-12-24T05:28:38.445Z,4.8
2022-12-24T05:34:13.100Z,2.4
2022-12-24T05:39:53.400Z,2.4
2022-12-24T05:45:27.707Z,5.9
2022-12-24T05:50:51.803Z,7.2
2022-12-24T05:56:32.625Z,3.6
2022-12-24T06:02:00.830Z,0
2022-12-24T06:07:37.166Z,3.6
2022-12-24T06:12:43.975Z,0
2022-12-24T06:18:16.162Z,3.6
2022-12-24T06:23:58.310Z,4.8
2022-12-24T06:29:31.241Z,2.4
2022-12-24T06:35:05.139Z,3.6
2022-12-24T06:40:26.268Z,4.8
2022-12-24T06:46:24.934Z,3.6
2022-12-24T06:51:58.394Z,7.2
2022-12-24T06:57:17.073Z,5.9
2022-12-24T07:02:51.875Z,0
2022-12-24T07:08:28.380Z,0
2022-12-24T07:13:44.631Z,0
2022-12-24T07:19:37.809Z,0
2022-12-24T07:25:09.210Z,0
2022-12-24T07:30:19.276Z,0
2022-12-24T07:36:18.451Z,0
2022-12-24T07:41:44.998Z,3.6
2022-12-24T07:47:23.319Z,4.8
2022-12-24T07:52:35.994Z,0
2022-12-24T07:58:19.141Z,0
2022-12-24T08:03:39.697Z,0
2022-12-24T08:09:25.782Z,0
2022-12-24T08:14:41.833Z,0
2022-12-24T08:20:31.320Z,0
2022-12-24T08:25:47.046Z,0
2022-12-24T08:31:14.604Z,0
2022-12-24T08:36:52.952Z,0
2022-12-24T08:42:45.492Z,0
2022-12-24T08:48:02.028Z,0
2022-12-24T08:53:40.866Z,0
2022-12-24T08:59:16.781Z,0
2022-12-24T09:04:39.237Z,0
2022-12-24T09:10:21.334Z,0
2022-12-24T09:15:52.502Z,0
2022-12-24T09:21:13.970Z,0
2022-12-24T09:26:57.898Z,0
2022-12-24T09:32:21.211Z,0
2022-12-24T09:38:07.087Z,0
2022-12-24T09:43:15.061Z,0
2022-12-24T09:49:00.664Z,0
2022-12-24T09:54:46.059Z,0
2022-12-24T09:59:57.685Z,0
2022-12-24T10:05:36.558Z,0
2022-12-24T10:11:16.979Z,0
2022-12-24T10:16:26.416Z,0
2022-12-24T10:22:06.269Z,0
2022-12-24T10:27:47.136Z,0
2022-12-24T10:33:23.062Z,0
2022-12-24T10:38:38.786Z,0
2022-12-24T10:44:20.298Z,0
2022-12-24T10:49:45.960Z,0
2022-12-24T11:00:47.876Z,0
2022-12-24T11:06:32.911Z,0
2022-12-24T11:11:55.171Z,0
2022-12-24T11:17:27.967Z,0
2022-12-24T11:23:06.847Z,0
2022-12-24T11:28:41.179Z,0
2022-12-24T11:34:12.781Z,0
2022-12-24T11:39:28.217Z,0
2022-12-24T11:45:06.581Z,0
2022-12-24T11:50:54.893Z,0
2022-12-24T11:56:15.836Z,0
2022-12-24T12:01:45.772Z,0
2022-12-24T12:07:14.918Z,0
2022-12-24T12:13:03.081Z,0
2022-12-24T12:18:19.717Z,0
2022-12-24T12:24:14.974Z,0
2022-12-24T12:29:32.883Z,0
2022-12-24T12:35:18.417Z,0
2022-12-24T12:40:44.371Z,0
2022-12-24T12:46:04.498Z,0
2022-12-24T12:51:38.428Z,0
2022-12-24T12:57:11.060Z,0
2022-12-24T13:02:55.204Z,0
2022-12-24T13:08:32.598Z,0
2022-12-24T13:13:48.903Z,0
2022-12-24T13:19:24.806Z,0
2022-12-24T13:24:59.876Z,0
2022-12-24T13:30:38.420Z,0
2022-12-24T13:35:56.644Z,0
2022-12-24T13:41:18.387Z,0
2022-12-24T13:47:09.344Z,0
2022-12-24T13:52:42.255Z,0
2022-12-24T13:58:04.956Z,0
2022-12-24T14:03:52.313Z,0
2022-12-24T14:09:03.748Z,0
2022-12-24T14:14:43.653Z,0
2022-12-24T14:20:29.604Z,0
2022-12-24T14:25:41.783Z,0
2022-12-24T14:31:21.125Z,0
2022-12-24T14:36:49.207Z,0
2022-12-24T14:42:16.619Z,0
2022-12-24T14:48:06.604Z,0
2022-12-24T14:53:42.125Z,0
2022-12-24T14:59:08.151Z,0
2022-12-24T15:04:20.191Z,0
2022-12-24T15:10:11.409Z,0
2022-12-24T15:15:52.442Z,0
2022-12-24T15:21:16.121Z,0
2022-12-24T15:26:42.154Z,0
2022-12-24T15:32:16.371Z,0
2022-12-24T15:37:47.697Z,0
2022-12-24T15:43:33.066Z,0
2022-12-24T15:48:53.599Z,0
2022-12-24T15:54:18.677Z,0
2022-12-24T16:00:01.935Z,0
2022-12-24T16:05:41.157Z,0
2022-12-24T16:11:07.969Z,0
2022-12-24T16:16:24.984Z,0
2022-12-24T16:21:51.050Z,0
2022-12-24T16:27:43.788Z,0
2022-12-24T16:33:06.073Z,0
2022-12-24T16:38:51.769Z,0
2022-12-24T16:44:22.379Z,0
2022-12-24T16:49:52.376Z,0
2022-12-24T16:55:15.175Z,0
2022-12-24T17:00:50.297Z,0
2022-12-24T17:06:33.027Z,0
2022-12-24T17:11:42.445Z,0
2022-12-24T17:17:22.223Z,0
2022-12-24T17:23:01.856Z,0
2022-12-24T17:28:22.123Z,0
2022-12-24T17:34:03.383Z,0
2022-12-24T17:39:32.147Z,0
2022-12-24T17:45:13.126Z,0
2022-12-24T17:56:00.300Z,0
2022-12-24T18:01:49.275Z,0
2022-12-24T18:07:19.217Z,0
2022-12-24T18:12:43.834Z,0
2022-12-24T18:18:08.859Z,0
2022-12-24T18:24:03.588Z,0
2022-12-24T18:29:17.787Z,0
2022-12-24T18:35:09.532Z,0
2022-12-24T18:40:31.432Z,0
2022-12-24T18:46:08.489Z,0
2022-12-24T18:51:22.281Z,0
2022-12-24T18:56:54.513Z,0
2022-12-24T19:02:43.606Z,0
2022-12-24T19:08:16.068Z,0
2022-12-24T19:13:31.396Z,0
2022-12-24T19:19:21.407Z,0
2022-12-24T19:24:53.152Z,0
2022-12-24T19:30:18.511Z,0
2022-12-24T19:35:55.755Z,0
2022-12-24T19:41:20.976Z,0
2022-12-24T19:46:57.898Z,0
2022-12-24T19:52:34.897Z,0
2022-12-24T19:57:42.870Z,0
2022-12-24T20:03:21.135Z,0
2022-12-24T20:08:59.568Z,0
2022-12-24T20:14:34.307Z,0
2022-12-24T20:19:52.245Z,0
2022-12-24T20:25:47.974Z,0
2022-12-24T20:31:10.015Z,0
2022-12-24T20:36:45.050Z,0
2022-12-24T20:42:18.658Z,0
2022-12-24T20:47:49.035Z,0
2022-12-24T20:53:04.761Z,0
2022-12-24T20:58:47.662Z,0
2022-12-24T21:04:16.054Z,0
2022-12-24T21:09:54.406Z,0
2022-12-24T21:15:38.897Z,0
2022-12-24T21:20:59.422Z,0
2022-12-24T21:26:23.965Z,0
2022-12-24T21:32:01.393Z,0
2022-12-24T21:37:35.428Z,0
2022-12-24T21:43:22.158Z,0
2022-12-24T21:48:48.379Z,0
2022-12-24T21:54:24.202Z,0
2022-12-24T21:59:40.036Z,0
2022-12-24T22:05:22.960Z,0
2022-12-24T22:10:39.753Z,0
2022-12-24T22:16:14.495Z,0
2022-12-24T22:21:55.285Z,0
2022-12-24T22:27:20.092Z,0
2022-12-24T22:32:52.699Z,0
2022-12-24T22:38:24.895Z,0
2022-12-24T22:44:05.899Z,0
2022-12-24T22:49:32.612Z,0
2022-12-24T22:54:57.106Z,0
2022-12-24T23:00:47.117Z,0
2022-12-24T23:06:20.296Z,0
2022-12-24T23:11:43.201Z,0
2022-12-24T23:17:25.450Z,0
2022-12-24T23:22:38.196Z,0
2022-12-24T23:28:13.647Z,0
2022-12-24T23:33:42.515Z,0
2022-12-24T23:39:19.430Z,0
2022-12-24T23:44:59.516Z,0
2022-12-24T23:50:12.672Z,0
2022-12-24T23:56:03.444Z,0
